Time;durP1;ratioP1;P1;durP2;ratioP2;P2;SDS_P1;SDS_P2;PMS_P1;PMS_P2;Temp;Humidity;BMP_temperature;BMP_pressure;BME280_temperature;BME280_humidity;BME280_pressure;Samples;Min_cycle;Max_cycle;Signal;HPM_P1;HPM_P2
2022/04/12 00:01:17;;;;;;;6.22;5.65;;;9.10;99.90;;;;;;6012906;23;20207;-78
2022/04/12 00:03:44;;;;;;;5.60;5.10;;;9.10;99.90;;;;;;6011418;23;20215;-78
2022/04/12 00:06:12;;;;;;;5.22;4.72;;;9.10;99.90;;;;;;6022570;23;20308;-78
2022/04/12 00:08:39;;;;;;;7.25;5.22;;;9.10;99.90;;;;;;6011616;23;20198;-78
2022/04/12 00:11:06;;;;;;;5.68;5.07;;;9.10;99.90;;;;;;6013725;23;20190;-78
2022/04/12 00:13:33;;;;;;;6.75;5.10;;;9.00;99.90;;;;;;6017945;23;20238;-78
2022/04/12 00:16:00;;;;;;;4.65;4.15;;;8.90;99.90;;;;;;6015557;23;20286;-79
2022/04/12 00:21:13;;;;;;;6.68;5.70;;;8.90;99.90;;;;;;6009951;23;20220;-78
2022/04/12 00:23:40;;;;;;;5.30;4.80;;;8.90;99.90;;;;;;6015878;23;20273;-79
2022/04/12 00:26:07;;;;;;;5.70;5.10;;;8.90;99.90;;;;;;6013346;23;20218;-78
2022/04/12 00:28:34;;;;;;;4.80;4.40;;;8.90;99.90;;;;;;6007604;23;20718;-78
2022/04/12 00:31:01;;;;;;;5.47;4.97;;;8.80;99.90;;;;;;6006850;23;20270;-78
2022/04/12 00:33:29;;;;;;;5.38;4.88;;;8.80;99.90;;;;;;6005757;23;20595;-78
2022/04/12 00:36:00;;;;;;;5.50;4.90;;;8.80;99.90;;;;;;6005809;23;20294;-78
2022/04/12 00:38:33;;;;;;;6.13;4.97;;;8.80;99.90;;;;;;6019498;23;20654;-78
2022/04/12 00:41:00;;;;;;;5.97;5.15;;;8.70;99.90;;;;;;6012336;23;20269;-78
2022/04/12 00:43:29;;;;;;;5.00;4.50;;;8.70;99.90;;;;;;6020066;23;20791;-78
2022/04/12 00:46:00;;;;;;;5.40;4.90;;;8.70;99.90;;;;;;6004475;23;20238;-78
2022/04/12 00:48:27;;;;;;;5.18;4.68;;;8.70;99.90;;;;;;6017812;23;20266;-78
2022/04/12 00:50:55;;;;;;;6.63;5.15;;;8.60;99.90;;;;;;6014771;23;20281;-77
2022/04/12 00:53:23;;;;;;;5.70;5.13;;;8.60;99.90;;;;;;6007951;23;20629;-77
2022/04/12 00:55:52;;;;;;;5.88;5.28;;;8.60;99.90;;;;;;6017750;23;20198;-78
2022/04/12 00:58:19;;;;;;;6.28;4.93;;;8.60;99.90;;;;;;6019475;23;20196;-78
2022/04/12 01:00:48;;;;;;;6.35;5.30;;;8.60;99.90;;;;;;6008368;23;20218;-78
2022/04/12 01:03:16;;;;;;;5.32;4.82;;;8.60;99.90;;;;;;6010525;23;20358;-78
2022/04/12 01:05:43;;;;;;;5.68;5.18;;;8.60;99.90;;;;;;6013601;23;20194;-78
2022/04/12 01:08:11;;;;;;;5.22;4.80;;;8.60;99.90;;;;;;6005961;23;20228;-78
2022/04/12 01:10:38;;;;;;;7.00;4.53;;;8.60;99.90;;;;;;6008006;23;20268;-78
2022/04/12 01:13:06;;;;;;;6.05;5.20;;;8.60;99.90;;;;;;6015649;23;20648;-78
2022/04/12 01:15:35;;;;;;;5.70;5.20;;;8.60;99.90;;;;;;6018005;23;20225;-78
2022/04/12 01:18:01;;;;;;;5.82;5.32;;;8.60;99.90;;;;;;6012099;23;20551;-78
2022/04/12 01:20:30;;;;;;;5.45;4.65;;;8.60;99.90;;;;;;6019152;23;20233;-78
2022/04/12 01:23:02;;;;;;;5.53;5.03;;;8.50;99.90;;;;;;6008083;23;20201;-78
2022/04/12 01:25:31;;;;;;;5.38;4.45;;;8.50;99.90;;;;;;6015608;23;20226;-78
2022/04/12 01:27:58;;;;;;;5.85;5.35;;;8.50;99.90;;;;;;6019171;23;20253;-78
2022/04/12 01:30:25;;;;;;;4.93;4.47;;;8.50;99.90;;;;;;6007462;23;20196;-79
2022/04/12 01:32:53;;;;;;;5.50;5.00;;;8.50;99.90;;;;;;6017952;23;20581;-78
2022/04/12 01:35:20;;;;;;;5.13;4.63;;;8.50;99.90;;;;;;6005966;23;20238;-78
2022/04/12 01:37:47;;;;;;;5.50;5.00;;;8.50;99.90;;;;;;6008167;23;20562;-77
2022/04/12 01:40:14;;;;;;;5.13;4.65;;;8.50;99.90;;;;;;6008226;23;20225;-78
2022/04/12 01:42:43;;;;;;;5.97;4.63;;;8.50;99.90;;;;;;6018365;23;20212;-78
2022/04/12 01:45:10;;;;;;;5.38;4.88;;;8.50;99.90;;;;;;6025944;23;20221;-78
2022/04/12 01:47:37;;;;;;;6.22;4.93;;;8.50;99.90;;;;;;6019160;23;20264;-78
2022/04/12 01:50:06;;;;;;;7.50;4.60;;;8.50;99.90;;;;;;6015046;23;20256;-77
2022/04/12 01:52:34;;;;;;;5.38;4.85;;;8.50;99.90;;;;;;6006394;23;20199;-78
2022/04/12 01:55:02;;;;;;;5.30;4.80;;;8.50;99.90;;;;;;6020631;23;20221;-78
2022/04/12 01:57:29;;;;;;;5.45;4.95;;;8.50;99.90;;;;;;6009202;23;20579;-78
2022/04/12 01:59:58;;;;;;;5.22;4.75;;;8.40;99.90;;;;;;6022053;23;20193;-78
2022/04/12 02:02:25;;;;;;;4.90;4.50;;;8.40;99.90;;;;;;6010463;23;20192;-78
2022/04/12 02:04:52;;;;;;;5.10;4.65;;;8.30;99.90;;;;;;6013301;23;20357;-78
2022/04/12 02:07:19;;;;;;;5.53;5.03;;;8.30;99.90;;;;;;6012160;23;20316;-78
2022/04/12 02:09:47;;;;;;;5.72;5.22;;;8.30;99.90;;;;;;6020123;23;20198;-79
2022/04/12 02:12:13;;;;;;;5.10;4.60;;;8.30;99.90;;;;;;6011439;23;20190;-78
2022/04/12 02:14:40;;;;;;;5.45;4.40;;;8.30;99.90;;;;;;6020240;23;20273;-78
2022/04/12 02:17:09;;;;;;;4.80;4.40;;;8.30;99.90;;;;;;6012309;23;20297;-78
2022/04/12 02:19:36;;;;;;;5.05;4.53;;;8.30;99.90;;;;;;6031823;23;20703;-78
2022/04/12 02:22:05;;;;;;;4.90;4.50;;;8.20;99.90;;;;;;6017758;23;20190;-78
2022/04/12 02:24:32;;;;;;;4.90;4.40;;;8.20;99.90;;;;;;6023264;23;20270;-78
2022/04/12 02:26:59;;;;;;;6.03;5.10;;;8.10;99.90;;;;;;6007018;23;20248;-78
2022/04/12 02:29:26;;;;;;;5.68;4.72;;;8.10;99.90;;;;;;6008981;23;20221;-79
2022/04/12 02:31:53;;;;;;;4.95;4.55;;;8.10;99.90;;;;;;6006863;23;20293;-78
2022/04/12 02:34:21;;;;;;;5.50;5.00;;;8.00;99.90;;;;;;6016093;23;20217;-78
2022/04/12 02:36:49;;;;;;;5.00;4.60;;;7.90;99.90;;;;;;6023523;23;20244;-78
2022/04/12 02:39:16;;;;;;;4.85;4.38;;;7.90;99.90;;;;;;6022215;23;20376;-78
2022/04/12 02:41:43;;;;;;;5.57;5.07;;;7.90;99.90;;;;;;6018330;23;20256;-78
2022/04/12 02:44:10;;;;;;;5.28;4.75;;;7.80;99.90;;;;;;6007637;23;20646;-78
2022/04/12 02:46:37;;;;;;;5.70;5.05;;;7.90;99.90;;;;;;6013723;23;20214;-78
2022/04/12 02:49:04;;;;;;;5.13;4.63;;;7.90;99.90;;;;;;6027098;23;20193;-78
2022/04/12 02:51:32;;;;;;;5.15;4.68;;;7.90;99.90;;;;;;6017144;23;20194;-78
2022/04/12 02:53:59;;;;;;;5.55;5.05;;;7.80;99.90;;;;;;6025846;23;20260;-78
2022/04/12 02:56:26;;;;;;;5.97;5.47;;;7.90;99.90;;;;;;6009680;23;20293;-78
2022/04/12 02:58:53;;;;;;;6.80;5.35;;;7.80;99.90;;;;;;6024916;23;20645;-77
2022/04/12 03:01:20;;;;;;;5.25;4.75;;;7.80;99.90;;;;;;6018752;23;20223;-78
2022/04/12 03:03:47;;;;;;;5.53;4.90;;;7.80;99.90;;;;;;6019242;23;20213;-78
2022/04/12 03:06:13;;;;;;;7.00;5.43;;;7.70;99.90;;;;;;6006624;23;20305;-73
2022/04/12 03:08:42;;;;;;;5.43;5.00;;;7.70;99.90;;;;;;5999276;23;20211;-72
2022/04/12 03:11:09;;;;;;;6.05;5.13;;;7.60;99.90;;;;;;5996859;23;20591;-72
2022/04/12 03:13:36;;;;;;;5.47;4.97;;;7.50;99.90;;;;;;5999001;23;20206;-73
2022/04/12 03:16:03;;;;;;;6.53;6.03;;;7.50;99.90;;;;;;5989204;23;20694;-73
2022/04/12 03:18:30;;;;;;;6.80;5.50;;;7.50;99.90;;;;;;5975262;23;20232;-72
2022/04/12 03:20:57;;;;;;;6.30;5.80;;;7.40;99.90;;;;;;5976128;23;20196;-72
2022/04/12 03:23:24;;;;;;;6.40;5.80;;;7.40;99.90;;;;;;5963709;23;20196;-72
2022/04/12 03:25:52;;;;;;;7.05;6.55;;;7.30;99.90;;;;;;5964676;23;20295;-72
2022/04/12 03:28:19;;;;;;;6.43;5.57;;;7.30;99.90;;;;;;5974715;23;20223;-72
2022/04/12 03:30:46;;;;;;;7.25;6.55;;;7.20;99.90;;;;;;5964704;23;20191;-72
2022/04/12 03:33:13;;;;;;;7.53;6.75;;;7.20;99.90;;;;;;5965743;23;20199;-72
2022/04/12 03:35:40;;;;;;;8.20;6.82;;;7.20;99.90;;;;;;5965959;23;20207;-72
2022/04/12 03:38:07;;;;;;;7.43;6.68;;;7.10;99.90;;;;;;5965549;23;20203;-72
2022/04/12 03:40:34;;;;;;;7.78;6.97;;;7.10;99.90;;;;;;5967081;23;20204;-72
2022/04/12 03:43:04;;;;;;;8.35;7.30;;;7.10;99.90;;;;;;5964403;24;20197;-73
2022/04/12 03:45:33;;;;;;;7.40;6.60;;;7.00;99.90;;;;;;5962895;23;20306;-72
2022/04/12 03:48:00;;;;;;;7.45;6.80;;;7.00;99.90;;;;;;5968097;24;20581;-72
2022/04/12 03:50:27;;;;;;;7.72;6.88;;;7.00;99.90;;;;;;5972609;23;20191;-72
2022/04/12 03:52:54;;;;;;;7.78;7.03;;;7.00;99.90;;;;;;5975318;24;20646;-72
2022/04/12 03:55:31;;;;;;;8.98;6.93;;;7.00;99.90;;;;;;5973751;23;20227;-72
2022/04/12 03:57:59;;;;;;;7.97;6.65;;;7.00;99.90;;;;;;5975084;24;20190;-72
2022/04/12 04:00:27;;;;;;;8.48;7.78;;;7.00;99.90;;;;;;5969283;23;20194;-72
2022/04/12 04:02:55;;;;;;;7.90;7.10;;;7.00;99.90;;;;;;5975347;24;20179;-72
2022/04/12 04:05:22;;;;;;;8.75;7.90;;;7.00;99.90;;;;;;5962253;23;20223;-73
2022/04/12 04:07:49;;;;;;;9.63;8.73;;;7.00;99.90;;;;;;5974963;24;20225;-72
2022/04/12 04:10:16;;;;;;;7.78;7.07;;;6.90;99.90;;;;;;5961576;23;20717;-72
2022/04/12 04:12:43;;;;;;;7.90;7.15;;;6.90;99.90;;;;;;5974698;23;20195;-72
2022/04/12 04:15:12;;;;;;;7.95;7.25;;;6.90;99.90;;;;;;5974575;23;20222;-72
2022/04/12 04:17:41;;;;;;;7.65;6.90;;;6.80;99.90;;;;;;5973512;23;20198;-72
2022/04/12 04:20:10;;;;;;;7.70;6.80;;;6.90;99.90;;;;;;5969405;23;20705;-72
2022/04/12 04:22:37;;;;;;;7.70;7.00;;;6.80;99.90;;;;;;5969985;23;20202;-71
2022/04/12 04:25:05;;;;;;;7.63;6.95;;;6.80;99.90;;;;;;5970775;23;20277;-72
2022/04/12 04:27:33;;;;;;;7.88;7.18;;;6.70;99.90;;;;;;5961975;23;20637;-72
2022/04/12 04:29:59;;;;;;;8.10;7.40;;;6.80;99.90;;;;;;5951208;23;20257;-71
2022/04/12 04:32:26;;;;;;;9.07;7.65;;;6.70;99.90;;;;;;5970084;23;20202;-73
2022/04/12 04:34:55;;;;;;;8.00;7.30;;;6.70;99.90;;;;;;5973332;23;20364;-73
2022/04/12 04:37:21;;;;;;;8.15;7.40;;;6.80;99.90;;;;;;5973186;23;20188;-73
2022/04/12 04:39:48;;;;;;;9.30;7.28;;;6.70;99.90;;;;;;5957763;23;20297;-73
2022/04/12 04:42:16;;;;;;;8.40;7.38;;;6.80;99.90;;;;;;5961807;23;20811;-73
2022/04/12 04:44:43;;;;;;;8.20;7.43;;;6.70;99.90;;;;;;5960953;23;20278;-73
2022/04/12 04:47:09;;;;;;;9.95;8.30;;;6.70;99.90;;;;;;5961619;23;20187;-73
2022/04/12 04:49:37;;;;;;;8.70;7.80;;;6.80;99.90;;;;;;5957188;23;20725;-73
2022/04/12 04:52:06;;;;;;;9.05;8.15;;;6.80;99.90;;;;;;5969043;23;20553;-73
2022/04/12 04:54:33;;;;;;;9.18;8.27;;;6.80;99.90;;;;;;5976891;23;20253;-73
2022/04/12 04:57:00;;;;;;;7.97;7.28;;;6.80;99.90;;;;;;5963603;23;20203;-73
2022/04/12 04:59:27;;;;;;;9.85;8.60;;;6.80;99.90;;;;;;5959438;23;20199;-73
2022/04/12 05:01:54;;;;;;;9.48;8.57;;;6.80;99.90;;;;;;5968756;23;20201;-75
2022/04/12 05:04:21;;;;;;;10.15;9.35;;;6.80;99.90;;;;;;5983461;23;20543;-73
2022/04/12 05:06:48;;;;;;;8.43;7.57;;;6.70;99.90;;;;;;5974151;23;20309;-73
2022/04/12 05:09:16;;;;;;;9.48;8.35;;;6.70;99.90;;;;;;5966176;23;20638;-73
2022/04/12 05:11:43;;;;;;;8.80;7.82;;;6.70;99.90;;;;;;5973005;23;20375;-72
2022/04/12 05:14:10;;;;;;;9.23;8.30;;;6.70;99.90;;;;;;5974478;23;20282;-73
2022/04/12 05:16:37;;;;;;;10.48;9.55;;;6.70;99.90;;;;;;5977457;23;20321;-73
2022/04/12 05:19:04;;;;;;;11.13;9.25;;;6.70;99.90;;;;;;5970344;23;20183;-73
2022/04/12 05:21:31;;;;;;;8.80;8.00;;;6.70;99.90;;;;;;5971488;23;20199;-74
2022/04/12 05:23:58;;;;;;;11.02;8.93;;;6.70;99.90;;;;;;5968136;23;20624;-73
2022/04/12 05:26:27;;;;;;;9.20;8.18;;;6.70;99.90;;;;;;5972297;23;20310;-73
2022/04/12 05:28:54;;;;;;;9.13;8.32;;;6.70;99.90;;;;;;5970804;23;20284;-73
2022/04/12 05:31:20;;;;;;;9.50;8.30;;;6.70;99.90;;;;;;5973180;23;20187;-74
2022/04/12 05:33:48;;;;;;;9.65;7.80;;;6.80;99.90;;;;;;5954383;23;20186;-72
2022/04/12 05:36:14;;;;;;;8.50;7.70;;;6.80;99.90;;;;;;5976737;23;20253;-73
2022/04/12 05:38:41;;;;;;;10.10;8.05;;;6.90;99.90;;;;;;5975735;23;20179;-74
2022/04/12 05:41:09;;;;;;;9.55;8.52;;;6.90;99.90;;;;;;5975703;23;20269;-74
2022/04/12 05:43:37;;;;;;;8.73;7.90;;;6.90;99.90;;;;;;5977153;23;20194;-74
2022/04/12 05:46:04;;;;;;;9.70;8.40;;;7.00;99.90;;;;;;5969707;23;20242;-73
2022/04/12 05:48:31;;;;;;;8.27;7.40;;;7.10;99.90;;;;;;5971292;23;20245;-76
2022/04/12 05:50:58;;;;;;;9.05;8.25;;;7.10;99.90;;;;;;5969020;23;20262;-72
2022/04/12 05:53:25;;;;;;;10.18;9.27;;;7.20;99.90;;;;;;5975714;23;20183;-72
2022/04/12 05:55:52;;;;;;;10.80;7.90;;;7.30;99.90;;;;;;5978836;23;20533;-72
2022/04/12 05:58:20;;;;;;;9.35;8.55;;;7.30;99.90;;;;;;5970151;23;20191;-72
2022/04/12 06:00:48;;;;;;;12.02;9.00;;;7.30;99.90;;;;;;5968878;23;20249;-72
2022/04/12 06:03:15;;;;;;;9.18;8.23;;;7.40;99.90;;;;;;5971401;23;20243;-73
2022/04/12 06:05:42;;;;;;;10.98;8.90;;;7.50;99.90;;;;;;5973701;23;20202;-73
2022/04/12 06:08:09;;;;;;;9.40;8.45;;;7.60;99.90;;;;;;5977233;23;20289;-73
2022/04/12 06:10:36;;;;;;;8.88;7.95;;;7.70;99.90;;;;;;5978678;23;20294;-72
2022/04/12 06:13:03;;;;;;;8.93;8.18;;;7.80;99.90;;;;;;5971317;23;20187;-72
2022/04/12 06:15:30;;;;;;;8.55;7.80;;;7.90;99.90;;;;;;5981972;23;20249;-72
2022/04/12 06:17:58;;;;;;;9.02;7.22;;;8.10;99.90;;;;;;5982395;23;20201;-72
2022/04/12 06:20:25;;;;;;;8.10;7.38;;;8.20;99.90;;;;;;5976953;23;20239;-73
2022/04/12 06:22:53;;;;;;;8.23;7.57;;;8.30;99.90;;;;;;5967594;23;20277;-73
2022/04/12 06:25:20;;;;;;;9.13;7.22;;;8.40;99.90;;;;;;5981001;23;20209;-73
2022/04/12 06:27:50;;;;;;;8.05;7.35;;;8.50;99.90;;;;;;5958655;23;20354;-85
2022/04/12 06:30:19;;;;;;;8.80;8.00;;;8.60;99.90;;;;;;5972283;23;20522;-74
2022/04/12 06:32:47;;;;;;;8.77;7.93;;;8.80;99.90;;;;;;5970460;23;20270;-75
2022/04/12 06:35:15;;;;;;;8.88;7.97;;;8.90;99.90;;;;;;5974159;23;20202;-73
2022/04/12 06:37:44;;;;;;;7.47;6.82;;;9.00;99.90;;;;;;5977934;23;20198;-73
2022/04/12 06:40:13;;;;;;;6.78;6.15;;;9.20;99.90;;;;;;5957724;23;20197;-74
2022/04/12 06:42:40;;;;;;;7.40;6.70;;;9.50;99.90;;;;;;5971730;23;20191;-73
2022/04/12 06:45:08;;;;;;;8.07;7.40;;;9.80;99.90;;;;;;5960395;23;20222;-74
2022/04/12 06:47:35;;;;;;;10.18;7.53;;;10.20;99.90;;;;;;5972391;23;20193;-74
2022/04/12 06:50:03;;;;;;;7.53;6.68;;;10.70;99.90;;;;;;5971180;23;20244;-73
2022/04/12 06:52:31;;;;;;;7.60;6.90;;;11.00;99.90;;;;;;5972971;23;20201;-73
2022/04/12 06:54:59;;;;;;;7.80;6.85;;;11.40;99.90;;;;;;5971634;23;20225;-74
2022/04/12 06:57:30;;;;;;;6.32;5.82;;;11.70;99.90;;;;;;5973919;23;20270;-73
2022/04/12 06:59:57;;;;;;;7.20;6.60;;;12.10;99.90;;;;;;5972456;23;20196;-74
2022/04/12 07:02:25;;;;;;;8.02;6.35;;;12.50;99.90;;;;;;5966573;23;20187;-74
2022/04/12 07:04:53;;;;;;;6.65;6.05;;;12.90;99.90;;;;;;5972970;23;20225;-74
2022/04/12 07:07:20;;;;;;;6.80;5.95;;;13.20;99.90;;;;;;5971735;23;20195;-74
2022/04/12 07:09:49;;;;;;;7.72;6.93;;;13.60;99.90;;;;;;5975002;23;20202;-74
2022/04/12 07:12:16;;;;;;;7.20;6.50;;;13.70;99.90;;;;;;5968135;23;20203;-74
2022/04/12 07:14:42;;;;;;;6.10;5.50;;;13.80;99.90;;;;;;5969872;23;20272;-73
2022/04/12 07:17:10;;;;;;;6.10;5.68;;;13.80;99.90;;;;;;5966326;23;20182;-72
2022/04/12 07:19:36;;;;;;;5.45;5.03;;;13.80;99.90;;;;;;5974488;23;20255;-71
2022/04/12 07:22:04;;;;;;;6.43;5.78;;;13.80;99.90;;;;;;5963870;23;20205;-73
2022/04/12 07:24:32;;;;;;;5.25;4.85;;;14.10;99.90;;;;;;5976957;23;20213;-72
2022/04/12 07:27:00;;;;;;;6.40;5.80;;;14.30;99.90;;;;;;5970871;23;20265;-73
2022/04/12 07:29:27;;;;;;;5.77;5.37;;;14.60;99.90;;;;;;5971828;23;20478;-73
2022/04/12 07:31:54;;;;;;;5.18;4.78;;;14.90;98.70;;;;;;5953038;23;20440;-73
2022/04/12 07:34:21;;;;;;;5.90;5.40;;;15.10;97.60;;;;;;5972984;23;20484;-73
2022/04/12 07:36:53;;;;;;;7.10;5.53;;;15.20;97.20;;;;;;5973117;23;20518;-73
2022/04/12 07:39:21;;;;;;;6.40;5.37;;;15.30;96.60;;;;;;5953305;23;20436;-74
2022/04/12 07:41:48;;;;;;;6.30;5.27;;;15.50;96.60;;;;;;5966989;23;20436;-73
2022/04/12 07:44:17;;;;;;;5.40;4.90;;;15.70;96.30;;;;;;5964592;23;20458;-73
2022/04/12 07:46:44;;;;;;;5.70;5.20;;;15.60;95.40;;;;;;5968523;23;20439;-73
2022/04/12 07:49:12;;;;;;;5.30;4.80;;;15.90;95.40;;;;;;5971352;23;20600;-73
2022/04/12 07:51:39;;;;;;;5.87;5.20;;;16.20;95.10;;;;;;5957238;23;20444;-73
2022/04/12 07:54:06;;;;;;;6.00;5.50;;;16.50;93.50;;;;;;5972850;23;20467;-73
2022/04/12 07:56:34;;;;;;;5.80;5.20;;;16.80;93.20;;;;;;5965630;23;20537;-73
2022/04/12 07:59:02;;;;;;;5.40;5.00;;;17.30;92.50;;;;;;5966230;23;20450;-73
2022/04/12 08:01:30;;;;;;;5.80;5.23;;;17.70;91.30;;;;;;5965593;23;20464;-74
2022/04/12 08:03:57;;;;;;;5.33;4.90;;;18.10;90.00;;;;;;5966312;23;20534;-74
2022/04/12 08:06:24;;;;;;;5.47;5.03;;;18.40;89.20;;;;;;5977872;23;20464;-74
2022/04/12 08:08:51;;;;;;;5.40;5.00;;;18.70;87.40;;;;;;5971424;23;20466;-74
2022/04/12 08:11:18;;;;;;;5.80;5.40;;;18.90;87.00;;;;;;5956989;23;20450;-74
2022/04/12 08:13:45;;;;;;;7.00;5.60;;;19.10;84.50;;;;;;5973385;23;20963;-73
2022/04/12 08:16:15;;;;;;;5.83;5.30;;;18.90;83.40;;;;;;5978367;23;20471;-74
2022/04/12 08:18:44;;;;;;;5.03;4.63;;;18.70;85.50;;;;;;5968164;23;20454;-74
2022/04/12 08:21:11;;;;;;;7.13;5.60;;;19.00;85.40;;;;;;5965014;23;20507;-74
2022/04/12 08:23:38;;;;;;;5.33;4.83;;;19.20;84.80;;;;;;5958286;23;20449;-74
2022/04/12 08:26:05;;;;;;;5.93;5.43;;;19.40;81.80;;;;;;5967115;23;20465;-74
2022/04/12 08:28:32;;;;;;;5.60;5.10;;;19.40;82.30;;;;;;5974514;23;20437;-74
2022/04/12 08:30:59;;;;;;;6.03;5.53;;;19.30;82.20;;;;;;5983072;23;20517;-73
2022/04/12 08:33:26;;;;;;;5.67;5.07;;;19.00;81.50;;;;;;5965691;23;20477;-74
2022/04/12 08:35:55;;;;;;;6.30;5.80;;;19.10;81.90;;;;;;5974445;23;20465;-75
2022/04/12 08:38:22;;;;;;;5.93;5.53;;;19.00;82.70;;;;;;5960376;23;22538;-73
2022/04/12 08:40:50;;;;;;;6.10;5.57;;;19.00;81.70;;;;;;5968818;23;20510;-74
2022/04/12 08:43:18;;;;;;;6.23;5.63;;;19.20;82.20;;;;;;5971325;23;20434;-74
2022/04/12 08:45:46;;;;;;;5.97;5.47;;;19.50;81.10;;;;;;5962277;23;21012;-74
2022/04/12 08:48:13;;;;;;;5.83;5.33;;;19.80;80.00;;;;;;5971609;23;20534;-74
2022/04/12 08:50:41;;;;;;;5.60;5.10;;;20.20;80.70;;;;;;5983634;23;20991;-75
2022/04/12 08:53:10;;;;;;;5.43;5.03;;;20.30;77.50;;;;;;5971131;23;20443;-74
2022/04/12 08:55:39;;;;;;;5.07;4.67;;;20.10;76.10;;;;;;5976912;23;20462;-74
2022/04/12 08:58:05;;;;;;;5.37;4.87;;;19.70;77.50;;;;;;5967108;23;21003;-74
2022/04/12 09:00:32;;;;;;;4.90;4.50;;;19.50;79.00;;;;;;5970603;23;20539;-74
2022/04/12 09:02:59;;;;;;;6.50;4.33;;;19.80;78.20;;;;;;5969318;23;20433;-74
2022/04/12 09:05:27;;;;;;;5.20;4.80;;;19.80;77.20;;;;;;5969408;23;21002;-74
2022/04/12 09:07:55;;;;;;;4.20;3.90;;;19.60;78.10;;;;;;5990999;23;20449;-74
2022/04/12 09:10:34;;;;;;;5.30;4.90;;;19.30;76.90;;;;;;5973231;23;20473;-74
2022/04/12 09:13:10;;;;;;;5.33;4.83;;;19.20;77.10;;;;;;5971609;23;21258;-74
2022/04/12 09:15:43;;;;;;;5.07;4.57;;;19.10;78.00;;;;;;5983995;23;20520;-74
2022/04/12 09:18:11;;;;;;;5.57;5.07;;;19.20;77.40;;;;;;5971896;23;20912;-73
2022/04/12 09:20:39;;;;;;;4.83;4.33;;;19.30;78.10;;;;;;5979615;23;20449;-73
2022/04/12 09:23:15;;;;;;;5.10;4.63;;;19.90;78.40;;;;;;5975565;23;20438;-74
2022/04/12 09:25:54;;;;;;;5.23;4.27;;;20.40;77.00;;;;;;5969025;23;20850;-73
2022/04/12 09:28:22;;;;;;;4.33;3.93;;;21.10;76.70;;;;;;5978033;23;20444;-74
2022/04/12 09:30:53;;;;;;;4.47;4.07;;;21.60;74.70;;;;;;5974998;23;20952;-74
2022/04/12 09:33:36;;;;;;;4.77;4.37;;;21.80;72.90;;;;;;5969034;23;20948;-74
2022/04/12 09:36:04;;;;;;;5.23;4.10;;;21.70;71.90;;;;;;5971996;23;20916;-74
2022/04/12 09:38:33;;;;;;;3.60;3.30;;;21.70;72.70;;;;;;5973639;23;20502;-74
2022/04/12 09:41:20;;;;;;;5.20;4.20;;;21.90;71.50;;;;;;5964258;23;20675;-74
2022/04/12 09:44:05;;;;;;;5.40;4.07;;;22.30;70.60;;;;;;5969191;23;20801;-74
2022/04/12 09:46:33;;;;;;;4.10;3.70;;;22.60;69.30;;;;;;5964486;23;20550;-74
2022/04/12 09:49:00;;;;;;;3.53;3.33;;;22.80;67.00;;;;;;5972919;23;20444;-74
2022/04/12 09:51:27;;;;;;;3.87;3.43;;;22.90;67.50;;;;;;5963920;23;20461;-74
2022/04/12 09:53:54;;;;;;;3.47;3.17;;;23.10;66.40;;;;;;5974612;23;20565;-74
2022/04/12 09:56:25;;;;;;;3.97;3.57;;;23.40;65.60;;;;;;5974974;24;20438;-74
2022/04/12 09:58:55;;;;;;;3.33;3.10;;;23.60;65.10;;;;;;5981993;23;20459;-74
2022/04/12 10:01:23;;;;;;;3.40;3.10;;;23.70;64.30;;;;;;5979154;23;20456;-74
2022/04/12 10:03:52;;;;;;;3.77;3.47;;;23.80;60.60;;;;;;5975130;23;20485;-75
2022/04/12 10:06:24;;;;;;;3.27;2.97;;;24.00;62.10;;;;;;5969661;23;20450;-84
2022/04/12 10:08:54;;;;;;;5.47;3.17;;;24.20;60.10;;;;;;5961463;23;20449;-72
2022/04/12 10:11:25;;;;;;;3.50;3.20;;;24.70;60.60;;;;;;5970160;23;21082;-73
2022/04/12 10:13:53;;;;;;;3.87;3.57;;;25.00;59.80;;;;;;5976075;23;20525;-73
2022/04/12 10:16:22;;;;;;;4.27;3.17;;;25.10;58.50;;;;;;5950031;24;20853;-73
2022/04/12 10:18:50;;;;;;;4.50;2.77;;;25.30;58.80;;;;;;5977441;23;20452;-74
2022/04/12 10:21:19;;;;;;;3.20;2.90;;;25.50;57.20;;;;;;5968752;23;20445;-73
2022/04/12 10:23:49;;;;;;;2.93;2.60;;;25.50;57.70;;;;;;5950860;24;20466;-73
2022/04/12 10:26:21;;;;;;;3.20;2.93;;;25.70;55.60;;;;;;5971862;23;20484;-73
2022/04/12 10:28:52;;;;;;;3.77;3.00;;;25.40;56.60;;;;;;5968674;24;20445;-73
2022/04/12 10:31:21;;;;;;;3.30;2.70;;;25.50;58.10;;;;;;5972903;23;20480;-74
2022/04/12 10:34:04;;;;;;;4.67;3.33;;;25.70;57.80;;;;;;5970643;23;20458;-74
2022/04/12 10:37:07;;;;;;;4.33;3.20;;;25.90;57.20;;;;;;5972209;23;20459;-73
2022/04/12 10:39:37;;;;;;;4.43;3.67;;;26.00;55.90;;;;;;5836116;24;20482;-74
2022/04/12 10:42:07;;;;;;;3.63;3.33;;;25.90;56.60;;;;;;5833461;24;20483;-73
2022/04/12 10:44:41;;;;;;;3.37;3.07;;;25.80;56.20;;;;;;5903669;23;20984;-74
2022/04/12 10:47:24;;;;;;;5.03;3.00;;;25.90;55.70;;;;;;5966842;23;20446;-74
2022/04/12 10:49:57;;;;;;;3.00;2.80;;;26.20;54.70;;;;;;5972877;23;20470;-74
2022/04/12 10:52:43;;;;;;;4.03;2.90;;;26.40;54.70;;;;;;5977606;23;20460;-74
2022/04/12 10:55:13;;;;;;;3.60;2.70;;;26.60;54.10;;;;;;5971685;23;20884;-73
2022/04/12 10:57:41;;;;;;;3.73;2.60;;;26.90;55.00;;;;;;5977248;23;20458;-73
2022/04/12 11:00:14;;;;;;;2.40;2.20;;;27.10;53.70;;;;;;5982773;23;20561;-73
2022/04/12 11:02:44;;;;;;;3.40;2.73;;;27.10;51.70;;;;;;5970158;23;21269;-72
2022/04/12 11:05:53;;;;;;;2.87;2.37;;;27.10;52.00;;;;;;5960631;23;20464;-73
2022/04/12 11:08:47;;;;;;;2.77;2.57;;;27.00;52.40;;;;;;5965792;23;20435;-71
2022/04/12 11:11:19;;;;;;;2.60;2.40;;;27.00;52.80;;;;;;5970937;23;20984;-72
2022/04/12 11:13:46;;;;;;;2.60;2.40;;;26.70;52.70;;;;;;5971488;23;20469;-74
2022/04/12 11:16:18;;;;;;;2.23;1.90;;;26.40;53.80;;;;;;5973729;23;20446;-74
2022/04/12 11:18:49;;;;;;;2.10;1.90;;;26.30;52.50;;;;;;5969368;23;20440;-73
2022/04/12 11:21:18;;;;;;;2.00;1.90;;;26.30;53.00;;;;;;5974761;23;20786;-74
2022/04/12 11:23:46;;;;;;;1.77;1.67;;;26.20;53.80;;;;;;5960711;23;20467;-74
2022/04/12 11:26:36;;;;;;;2.83;1.87;;;26.40;53.30;;;;;;5967272;23;20445;-81
2022/04/12 11:29:09;;;;;;;2.30;1.80;;;26.40;51.70;;;;;;5965575;23;20447;-72
2022/04/12 11:31:42;;;;;;;1.80;1.70;;;26.00;53.20;;;;;;5969821;23;20504;-73
2022/04/12 11:34:10;;;;;;;3.23;1.80;;;25.60;53.90;;;;;;5973489;23;20968;-73
2022/04/12 11:36:39;;;;;;;2.17;1.90;;;25.20;52.90;;;;;;5980895;23;20446;-73
2022/04/12 11:39:06;;;;;;;2.73;2.20;;;24.90;53.40;;;;;;5967474;23;20471;-72
2022/04/12 11:41:33;;;;;;;1.57;1.47;;;24.70;54.20;;;;;;5969044;23;20550;-72
2022/04/12 11:44:01;;;;;;;2.10;1.90;;;24.70;54.10;;;;;;5976225;23;20972;-74
2022/04/12 11:46:31;;;;;;;3.30;1.83;;;24.50;53.50;;;;;;5974782;23;20448;-73
2022/04/12 11:49:08;;;;;;;1.87;1.77;;;24.50;55.60;;;;;;5986696;23;20448;-73
2022/04/12 11:51:40;;;;;;;2.57;1.93;;;24.80;55.40;;;;;;5976243;23;20487;-72
2022/04/12 11:54:24;;;;;;;2.63;2.20;;;25.10;54.20;;;;;;5964703;23;20540;-72
2022/04/12 11:57:09;;;;;;;2.53;2.10;;;25.20;54.00;;;;;;5991521;23;20512;-73
2022/04/12 11:59:39;;;;;;;2.67;2.00;;;25.20;54.90;;;;;;5980677;23;20542;-72
2022/04/12 12:02:07;;;;;;;2.23;1.63;;;25.40;54.00;;;;;;5989039;23;20445;-72
2022/04/12 12:04:37;;;;;;;2.30;2.10;;;25.60;52.10;;;;;;5971023;23;20500;-72
2022/04/12 12:07:06;;;;;;;4.97;2.20;;;25.50;52.80;;;;;;5967378;23;20461;-72
2022/04/12 12:09:34;;;;;;;2.23;1.83;;;25.30;53.10;;;;;;5970675;23;20457;-72
2022/04/12 12:12:02;;;;;;;2.10;1.80;;;25.10;53.80;;;;;;5970264;23;20444;-73
2022/04/12 12:14:30;;;;;;;2.47;2.10;;;25.00;54.30;;;;;;5979966;23;21333;-74
2022/04/12 12:17:02;;;;;;;2.60;1.70;;;24.90;54.90;;;;;;5977072;23;20934;-72
2022/04/12 12:19:29;;;;;;;2.10;1.90;;;25.00;55.70;;;;;;5978929;23;20464;-73
2022/04/12 12:21:58;;;;;;;2.03;1.53;;;25.10;54.50;;;;;;5971362;23;21010;-74
2022/04/12 12:24:24;;;;;;;3.50;1.90;;;25.40;54.80;;;;;;5950626;23;20822;-72
2022/04/12 12:26:55;;;;;;;1.87;1.70;;;25.70;54.80;;;;;;5954490;23;20438;-72
2022/04/12 12:29:23;;;;;;;2.67;1.73;;;26.00;53.10;;;;;;5968244;23;20445;-72
2022/04/12 12:31:50;;;;;;;2.37;1.80;;;26.10;53.30;;;;;;5978263;23;20556;-73
2022/04/12 12:34:27;;;;;;;2.27;1.70;;;26.10;53.50;;;;;;5970291;23;20481;-73
2022/04/12 12:36:54;;;;;;;13.40;2.77;;;26.10;52.80;;;;;;5962301;23;20500;-73
2022/04/12 12:39:26;;;;;;;2.10;1.90;;;26.10;52.40;;;;;;5968823;23;22227;-72
2022/04/12 12:41:56;;;;;;;2.07;1.67;;;26.00;52.90;;;;;;5965042;23;20628;-72
2022/04/12 12:44:25;;;;;;;4.70;2.10;;;26.00;51.40;;;;;;5978699;23;21040;-73
2022/04/12 12:46:55;;;;;;;1.80;1.70;;;26.00;52.80;;;;;;5977321;23;20829;-73
2022/04/12 12:49:22;;;;;;;1.73;1.63;;;26.10;53.20;;;;;;5987463;23;20504;-72
2022/04/12 12:51:50;;;;;;;2.53;1.47;;;26.30;52.00;;;;;;5957719;23;20488;-73
2022/04/12 12:54:19;;;;;;;1.93;1.40;;;26.40;51.30;;;;;;5968069;23;20497;-73
2022/04/12 12:56:48;;;;;;;1.70;1.60;;;26.50;50.50;;;;;;5957123;23;20477;-74
2022/04/12 12:59:20;;;;;;;2.30;1.57;;;26.50;50.30;;;;;;5976752;23;20474;-73
2022/04/12 13:01:48;;;;;;;1.83;1.60;;;26.50;51.00;;;;;;5976771;23;20454;-73
2022/04/12 13:04:23;;;;;;;2.30;1.53;;;26.60;51.60;;;;;;5967760;23;20458;-74